x

South Santa Rosa Is. Ca (46069) Wave Buoy

2:50pm - Thu 27th Aug 2015 All times are PDT. -7 hours from GMT.

  • Sig Wave height 3.6ft
  • Peak Period 10s
  • Average Period 6s
  • Wind
    11mph, 13mph gusts
  • Sea Temp 69°f
  • 空気 Temp 67°f
  • Sea Pressure 1013.1mb
  • South Santa Rosa Is. Ca
  • South Santa Rosa Is. Ca

More Historic Weather Station data

Upgrade to MSW Pro to gain access to the past 30 days of data for over 8000 Wavebouys and Weather Stations around the globe.

Join Pro

Comparision Forecast

View Surf forecast
   
Thu 08/27 2:50pm 3.5ft 10s 6s 11 13 mph 1013.1mb 69f 67f
1:50pm 4ft 10s 6s 9 11 mph 1013.9mb 69f 67f
12:50pm 4ft 10s 6s 9 11 mph 1014.3mb 69f 67f
11:50am 3.5ft 11s 6s 9 11 mph 1014.6mb 68f 67f
10:50am 4ft 16s 6s 9 11 mph 1014.7mb 67f 67f
9:50am 3.5ft 11s 6s 9 11 mph 1014.5mb 67f 67f
8:50am 3.5ft 6s 5s 9 11 mph 1014mb 67f 67f
7:50am 3.5ft 14s 6s 11 13 mph 1013.8mb 67f 66f
6:50am 4ft 11s 5s 11 13 mph 1013.3mb 67f 66f
5:50am 4.5ft 10s 5s 13 16 mph 1013.1mb 67f 65f
4:50am 4.5ft 9s 5s 16 18 mph 1012.8mb 67f 66f
3:50am 4.5ft 10s 5s 18 20 mph 1012.8mb 67f 66f
2:50am 4.5ft 10s 5s 13
mph
1012.9mb 67f 66f
1:50am 4ft 5s 5s 16 18 mph 1013mb 67f 67f
12:50am 4.5ft 15s 5s 18 20 mph 1012.7mb 67f 67f
Wed 08/26 11:50pm 3.5ft 5s 5s 18 20 mph 1013mb 67f 66f
10:50pm 3.5ft 10s 5s 18 20 mph 1013.3mb 67f 67f
9:50pm 4.5ft 10s 5s 18 22 mph 1013.1mb 67f 66f
8:50pm 4ft 9s 5s 18 20 mph 1012.7mb 67f 66f
7:50pm 4ft 11s 5s 18 22 mph 1012.1mb 67f 66f
5:50pm 4ft 11s 5s 16 18 mph 1012.3mb 67f 66f
4:50pm 4.5ft 11s 5s 16 18 mph 1012.6mb 67f 65f
3:50pm 4.5ft 5s 5s 16
mph
1013mb 67f 65f
2:50pm 4.5ft 11s 5s 16 18 mph 1013.7mb 67f 64f
1:50pm 4.5ft 6s 5s 16 18 mph 1014mb 67f 64f
12:50pm 4.5ft 9s 5s 16 18 mph 1014.3mb 67f 64f
11:50am 4ft 11s 5s 16 18 mph 1014.3mb 66f 64f
10:50am 4.5ft 11s 5s 16 18 mph 1014.1mb 66f 63f
9:50am 4.5ft 7s 5s 18
mph
1013.9mb 66f 63f
8:50am 4.5ft 6s 5s 18 20 mph 1013.7mb 66f 63f
7:50am 4.5ft 6s 5s 18 22 mph 1013.1mb 66f 63f
6:50am 4.5ft 6s 5s 20 22 mph 1012.7mb 66f 63f
5:50am 5ft 6s 5s 20 22 mph 1012.2mb 66f 63f
4:50am 5ft 6s 5s 20 22 mph 1012.2mb 66f 63f
3:50am 4.5ft 6s 5s 18 20 mph 1012.1mb 66f 64f
2:50am 5ft 7s 5s 18 22 mph 1012.2mb 66f 64f
1:50am 5ft 11s 5s 18 22 mph 1012.1mb 66f 64f
12:50am 4.5ft 12s 5s 20 22 mph 1012.4mb 66f 65f
Tue 08/25 11:50pm 4.5ft 13s 5s 18 20 mph 1012.6mb 66f 65f
10:50pm 4.5ft 13s 5s 18 20 mph 1012.6mb 66f 65f
9:50pm 4.5ft 13s 5s 20 22 mph 1012.5mb 66f 65f
8:50pm 4.5ft 7s 5s 20 22 mph 1012.2mb 66f 65f
7:50pm 4ft 13s 5s 18 20 mph 1012mb 66f 65f
6:50pm 4.5ft 7s 5s 18 20 mph 1012mb 66f 65f
5:50pm 4ft 7s 5s 16 18 mph 1012.1mb 66f 65f
4:50pm 4.5ft 6s 6s 13 16 mph 1012.6mb 66f 66f
3:50pm 4.5ft 7s 5s 13 16 mph 1013.1mb 66f 65f
2:50pm 4.5ft 7s 5s 13 16 mph 1014mb 66f 65f
1:50pm 4.5ft 8s 5s 16 18 mph 1013.9mb 66f 64f
12:50pm 5ft 7s 5s 18 22 mph 1013.5mb 66f 64f
11:50am 5ft 7s 5s 20 22 mph 1013.4mb 66f 64f
10:50am 5ft 7s 5s 22 25 mph 1013mb 66f 64f
9:50am 5ft 7s 5s 22 25 mph 1012.8mb 66f 64f
8:50am 5.5ft 7s 5s 20 25 mph 1013mb 66f 63f
7:50am 6ft 6s 5s 22 27 mph 1012.5mb 66f 63f
6:50am 5.5ft 6s 5s 22 27 mph 1012.1mb 66f 64f
5:50am 5ft 6s 5s 22 27 mph 1011.7mb 66f 64f
4:50am 5.5ft 6s 5s 25 29 mph 1011.3mb 66f 64f
3:50am 6ft 6s 5s 25 31 mph 1010.8mb 66f 65f
2:50am 6ft 6s 5s 22 29 mph 1010.8mb 67f 65f
1:50am 5.5ft 6s 5s 25 31 mph 1010.9mb 66f 65f
12:50am 5.5ft 6s 5s 25 29 mph 1010.9mb 66f 65f
Mon 08/24 11:50pm 6ft 6s 5s 25 29 mph 1011mb 66f 65f
10:50pm 6ft 6s 5s 27 31 mph 1011.1mb 66f 65f
9:50pm 6ft 6s 5s 27 29 mph 1011.3mb 66f 65f
8:50pm 5.5ft 6s 5s 25 31 mph 1011.5mb 66f 65f
7:50pm 5ft 6s 5s 25 31 mph 1011.1mb 67f 65f
6:50pm 5ft 5s 4s 27 29 mph 1011.1mb 67f 65f
5:50pm 5ft 5s 4s 25 29 mph 1011.6mb 67f 65f
4:50pm 4.5ft 5s 5s 20 25 mph 1012.5mb 67f 65f
3:50pm 5ft 6s 5s 20 25 mph 1013.1mb 67f 65f
2:50pm 5ft 6s 5s 20 27 mph 1013.3mb 67f 65f
1:50pm 5ft 6s 5s 20 25 mph 1014mb 67f 64f
12:50pm 5ft 6s 5s 20 25 mph 1014.1mb 67f 64f
11:50am 4.5ft 6s 5s 20 25 mph 1014.6mb 66f 64f
10:50am 5ft 6s 5s 18 22 mph 1014.7mb 66f 64f
9:50am 5ft 6s 5s 20 25 mph 1014.5mb 66f 64f
8:50am 5ft 6s 5s 20 25 mph 1014.3mb 66f 64f
6:50am 5ft 6s 5s 22 25 mph 1013.6mb 66f 64f
5:50am 5ft 5s 5s 22 27 mph 1013.3mb 66f 64f
4:50am 5ft 5s 5s 20 25 mph 1013mb 66f 64f
3:50am 5ft 6s 5s 22 27 mph 1013mb 66f 64f
2:50am 5ft 6s 5s 22 27 mph 1013mb 66f 65f
1:50am 5ft 5s 5s 20 25 mph 1013.3mb 66f 65f
12:50am 5ft 5s 5s 20 25 mph 1013.2mb 66f 65f
Sun 08/23 11:50pm 5.5ft 5s 5s 20 27 mph 1013.1mb 66f 65f
10:50pm 5.5ft 9s 5s 22 29 mph 1013mb 66f 65f